sensor_id;sensor_type;location;lat;lon;timestamp;pressure;altitude;pressure_sealevel;temperature
58307;BMP280;44116;50.884;4.768;2023-09-19T00:00:42;100510.0;;;14.0
58307;BMP280;44116;50.884;4.768;2023-09-19T00:02:42;100500.0;;;13.8
58307;BMP280;44116;50.884;4.768;2023-09-19T00:06:42;100510.0;;;13.7
58307;BMP280;44116;50.884;4.768;2023-09-19T00:08:42;100500.0;;;13.8
58307;BMP280;44116;50.884;4.768;2023-09-19T00:10:42;100510.0;;;13.8
58307;BMP280;44116;50.884;4.768;2023-09-19T00:12:42;100510.0;;;13.7
58307;BMP280;44116;50.884;4.768;2023-09-19T00:14:41;100510.0;;;13.8
58307;BMP280;44116;50.884;4.768;2023-09-19T00:16:41;100520.0;;;13.8
58307;BMP280;44116;50.884;4.768;2023-09-19T00:18:41;100510.0;;;13.7
58307;BMP280;44116;50.884;4.768;2023-09-19T00:20:41;100530.0;;;13.7
58307;BMP280;44116;50.884;4.768;2023-09-19T00:22:41;100520.0;;;13.7
58307;BMP280;44116;50.884;4.768;2023-09-19T00:24:40;100520.0;;;13.7
58307;BMP280;44116;50.884;4.768;2023-09-19T00:26:40;100520.0;;;13.7
58307;BMP280;44116;50.884;4.768;2023-09-19T00:28:40;100530.0;;;13.7
58307;BMP280;44116;50.884;4.768;2023-09-19T00:30:42;100530.0;;;13.7
58307;BMP280;44116;50.884;4.768;2023-09-19T00:32:40;100530.0;;;13.7
58307;BMP280;44116;50.884;4.768;2023-09-19T00:34:39;100540.0;;;13.7
58307;BMP280;44116;50.884;4.768;2023-09-19T00:44:39;100540.0;;;13.7
58307;BMP280;44116;50.884;4.768;2023-09-19T00:46:38;100540.0;;;13.6
58307;BMP280;44116;50.884;4.768;2023-09-19T00:48:38;100540.0;;;13.6
58307;BMP280;44116;50.884;4.768;2023-09-19T00:50:38;100540.0;;;13.5
58307;BMP280;44116;50.884;4.768;2023-09-19T00:52:38;100540.0;;;13.5
58307;BMP280;44116;50.884;4.768;2023-09-19T00:54:38;100550.0;;;13.6
58307;BMP280;44116;50.884;4.768;2023-09-19T00:56:38;100560.0;;;13.6
58307;BMP280;44116;50.884;4.768;2023-09-19T01:00:37;100560.0;;;13.6
58307;BMP280;44116;50.884;4.768;2023-09-19T01:02:37;100560.0;;;13.6
58307;BMP280;44116;50.884;4.768;2023-09-19T01:04:37;100560.0;;;13.5
58307;BMP280;44116;50.884;4.768;2023-09-19T01:06:37;100570.0;;;13.4
58307;BMP280;44116;50.884;4.768;2023-09-19T01:08:37;100570.0;;;13.4
58307;BMP280;44116;50.884;4.768;2023-09-19T01:10:36;100570.0;;;13.4
58307;BMP280;44116;50.884;4.768;2023-09-19T01:14:38;100570.0;;;13.4
58307;BMP280;44116;50.884;4.768;2023-09-19T01:16:36;100570.0;;;13.4
58307;BMP280;44116;50.884;4.768;2023-09-19T01:18:39;100570.0;;;13.4
58307;BMP280;44116;50.884;4.768;2023-09-19T01:20:37;100570.0;;;13.3
58307;BMP280;44116;50.884;4.768;2023-09-19T01:26:42;100570.0;;;13.4
58307;BMP280;44116;50.884;4.768;2023-09-19T01:28:41;100580.0;;;13.3
58307;BMP280;44116;50.884;4.768;2023-09-19T01:30:35;100570.0;;;13.3
58307;BMP280;44116;50.884;4.768;2023-09-19T01:32:35;100570.0;;;13.3
58307;BMP280;44116;50.884;4.768;2023-09-19T01:36:35;100580.0;;;13.2
58307;BMP280;44116;50.884;4.768;2023-09-19T01:40:34;100590.0;;;13.6
58307;BMP280;44116;50.884;4.768;2023-09-19T01:42:35;100590.0;;;13.2
58307;BMP280;44116;50.884;4.768;2023-09-19T01:44:36;100580.0;;;13.2
58307;BMP280;44116;50.884;4.768;2023-09-19T01:46:34;100580.0;;;13.2
58307;BMP280;44116;50.884;4.768;2023-09-19T01:48:34;100590.0;;;13.1
58307;BMP280;44116;50.884;4.768;2023-09-19T01:50:34;100580.0;;;13.0
58307;BMP280;44116;50.884;4.768;2023-09-19T01:52:35;100590.0;;;13.1
58307;BMP280;44116;50.884;4.768;2023-09-19T01:54:33;100590.0;;;13.2
58307;BMP280;44116;50.884;4.768;2023-09-19T01:56:34;100590.0;;;13.2
58307;BMP280;44116;50.884;4.768;2023-09-19T01:58:33;100590.0;;;13.2
58307;BMP280;44116;50.884;4.768;2023-09-19T02:00:32;100590.0;;;13.2
58307;BMP280;44116;50.884;4.768;2023-09-19T02:02:33;100590.0;;;13.1
58307;BMP280;44116;50.884;4.768;2023-09-19T02:06:32;100590.0;;;13.1
58307;BMP280;44116;50.884;4.768;2023-09-19T02:08:31;100590.0;;;13.1
58307;BMP280;44116;50.884;4.768;2023-09-19T02:12:31;100590.0;;;12.9
58307;BMP280;44116;50.884;4.768;2023-09-19T02:14:31;100590.0;;;12.9
58307;BMP280;44116;50.884;4.768;2023-09-19T02:16:31;100590.0;;;12.8
58307;BMP280;44116;50.884;4.768;2023-09-19T02:18:31;100590.0;;;12.9
58307;BMP280;44116;50.884;4.768;2023-09-19T02:24:30;100590.0;;;12.9
58307;BMP280;44116;50.884;4.768;2023-09-19T02:26:30;100580.0;;;13.0
58307;BMP280;44116;50.884;4.768;2023-09-19T02:28:30;100580.0;;;12.9
58307;BMP280;44116;50.884;4.768;2023-09-19T02:32:29;100580.0;;;12.9
58307;BMP280;44116;50.884;4.768;2023-09-19T02:34:29;100580.0;;;12.9
58307;BMP280;44116;50.884;4.768;2023-09-19T02:36:29;100580.0;;;12.9
58307;BMP280;44116;50.884;4.768;2023-09-19T02:38:29;100590.0;;;13.1
58307;BMP280;44116;50.884;4.768;2023-09-19T02:40:28;100580.0;;;13.1
58307;BMP280;44116;50.884;4.768;2023-09-19T02:42:28;100580.0;;;13.2
58307;BMP280;44116;50.884;4.768;2023-09-19T02:44:28;100590.0;;;13.2
58307;BMP280;44116;50.884;4.768;2023-09-19T02:46:28;100590.0;;;13.2
58307;BMP280;44116;50.884;4.768;2023-09-19T02:48:28;100600.0;;;13.2
58307;BMP280;44116;50.884;4.768;2023-09-19T02:50:27;100600.0;;;13.2
58307;BMP280;44116;50.884;4.768;2023-09-19T02:52:27;100600.0;;;13.3
58307;BMP280;44116;50.884;4.768;2023-09-19T02:54:27;100600.0;;;13.2
58307;BMP280;44116;50.884;4.768;2023-09-19T02:56:27;100600.0;;;13.3
58307;BMP280;44116;50.884;4.768;2023-09-19T02:58:27;100600.0;;;13.3
58307;BMP280;44116;50.884;4.768;2023-09-19T03:00:26;100610.0;;;13.3
58307;BMP280;44116;50.884;4.768;2023-09-19T03:02:26;100620.0;;;13.4
58307;BMP280;44116;50.884;4.768;2023-09-19T03:04:26;100620.0;;;13.3
58307;BMP280;44116;50.884;4.768;2023-09-19T03:06:26;100630.0;;;13.3
58307;BMP280;44116;50.884;4.768;2023-09-19T03:08:26;100630.0;;;13.4
58307;BMP280;44116;50.884;4.768;2023-09-19T03:10:26;100630.0;;;13.4
58307;BMP280;44116;50.884;4.768;2023-09-19T03:12:25;100630.0;;;13.4
58307;BMP280;44116;50.884;4.768;2023-09-19T03:14:25;100630.0;;;13.4
58307;BMP280;44116;50.884;4.768;2023-09-19T03:16:25;100630.0;;;13.5
58307;BMP280;44116;50.884;4.768;2023-09-19T03:18:25;100620.0;;;13.5
58307;BMP280;44116;50.884;4.768;2023-09-19T03:20:25;100620.0;;;13.5
58307;BMP280;44116;50.884;4.768;2023-09-19T03:22:25;100620.0;;;13.5
58307;BMP280;44116;50.884;4.768;2023-09-19T03:24:24;100610.0;;;13.5
58307;BMP280;44116;50.884;4.768;2023-09-19T03:26:24;100620.0;;;13.5
58307;BMP280;44116;50.884;4.768;2023-09-19T03:28:24;100630.0;;;13.5
58307;BMP280;44116;50.884;4.768;2023-09-19T03:30:24;100630.0;;;13.4
58307;BMP280;44116;50.884;4.768;2023-09-19T03:32:23;100630.0;;;13.4
58307;BMP280;44116;50.884;4.768;2023-09-19T03:34:23;100620.0;;;13.4
58307;BMP280;44116;50.884;4.768;2023-09-19T03:36:23;100620.0;;;13.3
58307;BMP280;44116;50.884;4.768;2023-09-19T03:38:23;100620.0;;;13.4
58307;BMP280;44116;50.884;4.768;2023-09-19T03:40:23;100620.0;;;13.4
58307;BMP280;44116;50.884;4.768;2023-09-19T03:42:23;100620.0;;;13.4
58307;BMP280;44116;50.884;4.768;2023-09-19T03:44:22;100620.0;;;13.5
58307;BMP280;44116;50.884;4.768;2023-09-19T03:46:22;100630.0;;;13.6
58307;BMP280;44116;50.884;4.768;2023-09-19T03:48:22;100640.0;;;13.5
58307;BMP280;44116;50.884;4.768;2023-09-19T03:50:22;100640.0;;;13.6
58307;BMP280;44116;50.884;4.768;2023-09-19T03:52:22;100630.0;;;13.6
58307;BMP280;44116;50.884;4.768;2023-09-19T03:54:21;100630.0;;;13.5
58307;BMP280;44116;50.884;4.768;2023-09-19T03:56:21;100630.0;;;13.5
58307;BMP280;44116;50.884;4.768;2023-09-19T03:58:21;100630.0;;;13.4
58307;BMP280;44116;50.884;4.768;2023-09-19T04:00:21;100620.0;;;13.4
58307;BMP280;44116;50.884;4.768;2023-09-19T04:02:21;100610.0;;;13.4
58307;BMP280;44116;50.884;4.768;2023-09-19T04:04:20;100610.0;;;13.2
58307;BMP280;44116;50.884;4.768;2023-09-19T04:06:20;100600.0;;;13.2
58307;BMP280;44116;50.884;4.768;2023-09-19T04:08:20;100600.0;;;13.2
58307;BMP280;44116;50.884;4.768;2023-09-19T04:10:20;100600.0;;;13.1
58307;BMP280;44116;50.884;4.768;2023-09-19T04:14:20;100600.0;;;13.1
58307;BMP280;44116;50.884;4.768;2023-09-19T04:16:19;100600.0;;;13.0
58307;BMP280;44116;50.884;4.768;2023-09-19T04:18:19;100600.0;;;13.0
58307;BMP280;44116;50.884;4.768;2023-09-19T04:20:19;100600.0;;;12.9
58307;BMP280;44116;50.884;4.768;2023-09-19T04:22:19;100600.0;;;12.9
58307;BMP280;44116;50.884;4.768;2023-09-19T04:24:18;100600.0;;;12.8
58307;BMP280;44116;50.884;4.768;2023-09-19T04:26:18;100600.0;;;12.8
58307;BMP280;44116;50.884;4.768;2023-09-19T04:28:18;100600.0;;;12.8
58307;BMP280;44116;50.884;4.768;2023-09-19T04:34:17;100600.0;;;12.9
58307;BMP280;44116;50.884;4.768;2023-09-19T04:36:17;100600.0;;;12.8
58307;BMP280;44116;50.884;4.768;2023-09-19T04:38:17;100600.0;;;12.7
58307;BMP280;44116;50.884;4.768;2023-09-19T04:40:17;100600.0;;;12.9
58307;BMP280;44116;50.884;4.768;2023-09-19T04:42:17;100600.0;;;12.8
58307;BMP280;44116;50.884;4.768;2023-09-19T04:44:16;100600.0;;;12.9
58307;BMP280;44116;50.884;4.768;2023-09-19T04:46:16;100610.0;;;12.9
58307;BMP280;44116;50.884;4.768;2023-09-19T04:48:16;100600.0;;;12.9
58307;BMP280;44116;50.884;4.768;2023-09-19T04:50:16;100610.0;;;13.0
58307;BMP280;44116;50.884;4.768;2023-09-19T04:52:16;100610.0;;;12.9
58307;BMP280;44116;50.884;4.768;2023-09-19T04:54:15;100620.0;;;12.9
58307;BMP280;44116;50.884;4.768;2023-09-19T05:00:15;100610.0;;;12.9
58307;BMP280;44116;50.884;4.768;2023-09-19T05:04:15;100620.0;;;12.9
58307;BMP280;44116;50.884;4.768;2023-09-19T05:06:14;100610.0;;;12.8
58307;BMP280;44116;50.884;4.768;2023-09-19T05:08:14;100620.0;;;12.8
58307;BMP280;44116;50.884;4.768;2023-09-19T05:10:14;100620.0;;;12.8
58307;BMP280;44116;50.884;4.768;2023-09-19T05:12:14;100630.0;;;12.8
58307;BMP280;44116;50.884;4.768;2023-09-19T05:14:13;100630.0;;;12.8
58307;BMP280;44116;50.884;4.768;2023-09-19T05:16:13;100640.0;;;12.8
58307;BMP280;44116;50.884;4.768;2023-09-19T05:18:13;100640.0;;;12.7
58307;BMP280;44116;50.884;4.768;2023-09-19T05:20:13;100640.0;;;12.8
58307;BMP280;44116;50.884;4.768;2023-09-19T05:22:13;100650.0;;;12.7
58307;BMP280;44116;50.884;4.768;2023-09-19T05:24:12;100650.0;;;12.7
58307;BMP280;44116;50.884;4.768;2023-09-19T05:26:12;100650.0;;;12.7
58307;BMP280;44116;50.884;4.768;2023-09-19T05:28:12;100650.0;;;12.7
58307;BMP280;44116;50.884;4.768;2023-09-19T05:30:12;100650.0;;;12.7
58307;BMP280;44116;50.884;4.768;2023-09-19T05:32:12;100650.0;;;12.7
58307;BMP280;44116;50.884;4.768;2023-09-19T05:34:11;100650.0;;;12.7
58307;BMP280;44116;50.884;4.768;2023-09-19T05:36:11;100650.0;;;12.7
58307;BMP280;44116;50.884;4.768;2023-09-19T05:40:11;100650.0;;;12.6
58307;BMP280;44116;50.884;4.768;2023-09-19T05:42:11;100650.0;;;12.7
58307;BMP280;44116;50.884;4.768;2023-09-19T05:44:11;100650.0;;;12.7
58307;BMP280;44116;50.884;4.768;2023-09-19T05:46:10;100660.0;;;12.7
58307;BMP280;44116;50.884;4.768;2023-09-19T05:48:11;100650.0;;;12.8
58307;BMP280;44116;50.884;4.768;2023-09-19T05:50:10;100650.0;;;12.7
58307;BMP280;44116;50.884;4.768;2023-09-19T05:54:09;100640.0;;;12.8
58307;BMP280;44116;50.884;4.768;2023-09-19T05:56:09;100640.0;;;12.7
58307;BMP280;44116;50.884;4.768;2023-09-19T06:00:09;100650.0;;;12.8
58307;BMP280;44116;50.884;4.768;2023-09-19T06:02:09;100650.0;;;12.8
58307;BMP280;44116;50.884;4.768;2023-09-19T06:04:08;100650.0;;;12.9
58307;BMP280;44116;50.884;4.768;2023-09-19T06:06:08;100640.0;;;12.9
58307;BMP280;44116;50.884;4.768;2023-09-19T06:08:08;100640.0;;;12.9
58307;BMP280;44116;50.884;4.768;2023-09-19T06:10:08;100650.0;;;12.9
58307;BMP280;44116;50.884;4.768;2023-09-19T06:16:07;100660.0;;;13.0
58307;BMP280;44116;50.884;4.768;2023-09-19T06:18:10;100670.0;;;13.1
58307;BMP280;44116;50.884;4.768;2023-09-19T06:20:07;100670.0;;;13.2
58307;BMP280;44116;50.884;4.768;2023-09-19T06:22:07;100670.0;;;13.2
58307;BMP280;44116;50.884;4.768;2023-09-19T06:24:06;100660.0;;;13.2
58307;BMP280;44116;50.884;4.768;2023-09-19T06:26:06;100670.0;;;13.2
58307;BMP280;44116;50.884;4.768;2023-09-19T06:28:06;100660.0;;;13.2
58307;BMP280;44116;50.884;4.768;2023-09-19T06:30:06;100660.0;;;13.3
58307;BMP280;44116;50.884;4.768;2023-09-19T06:32:06;100660.0;;;13.3
58307;BMP280;44116;50.884;4.768;2023-09-19T06:34:05;100670.0;;;13.4
58307;BMP280;44116;50.884;4.768;2023-09-19T06:36:05;100660.0;;;13.4
58307;BMP280;44116;50.884;4.768;2023-09-19T06:38:05;100670.0;;;13.5
58307;BMP280;44116;50.884;4.768;2023-09-19T06:40:06;100670.0;;;13.5
58307;BMP280;44116;50.884;4.768;2023-09-19T06:44:05;100670.0;;;13.6
58307;BMP280;44116;50.884;4.768;2023-09-19T06:46:04;100670.0;;;13.7
58307;BMP280;44116;50.884;4.768;2023-09-19T06:48:05;100680.0;;;13.7
58307;BMP280;44116;50.884;4.768;2023-09-19T06:50:04;100680.0;;;13.7
58307;BMP280;44116;50.884;4.768;2023-09-19T06:52:04;100690.0;;;13.7
58307;BMP280;44116;50.884;4.768;2023-09-19T06:54:04;100690.0;;;13.8
58307;BMP280;44116;50.884;4.768;2023-09-19T06:56:03;100690.0;;;13.8
58307;BMP280;44116;50.884;4.768;2023-09-19T06:58:03;100700.0;;;13.9
58307;BMP280;44116;50.884;4.768;2023-09-19T07:00:03;100690.0;;;13.8
58307;BMP280;44116;50.884;4.768;2023-09-19T07:02:03;100700.0;;;13.9
58307;BMP280;44116;50.884;4.768;2023-09-19T07:04:03;100700.0;;;13.9
58307;BMP280;44116;50.884;4.768;2023-09-19T07:06:03;100690.0;;;13.9
58307;BMP280;44116;50.884;4.768;2023-09-19T07:08:03;100700.0;;;13.9
58307;BMP280;44116;50.884;4.768;2023-09-19T07:10:03;100690.0;;;14.0
58307;BMP280;44116;50.884;4.768;2023-09-19T07:12:02;100700.0;;;14.0
58307;BMP280;44116;50.884;4.768;2023-09-19T07:14:02;100710.0;;;14.2
58307;BMP280;44116;50.884;4.768;2023-09-19T07:16:02;100710.0;;;14.1
58307;BMP280;44116;50.884;4.768;2023-09-19T07:18:02;100710.0;;;14.1
58307;BMP280;44116;50.884;4.768;2023-09-19T07:22:02;100710.0;;;14.2
58307;BMP280;44116;50.884;4.768;2023-09-19T07:24:01;100710.0;;;14.1
58307;BMP280;44116;50.884;4.768;2023-09-19T07:26:01;100710.0;;;14.1
58307;BMP280;44116;50.884;4.768;2023-09-19T07:28:01;100710.0;;;14.2
58307;BMP280;44116;50.884;4.768;2023-09-19T07:30:01;100710.0;;;14.4
58307;BMP280;44116;50.884;4.768;2023-09-19T07:32:01;100710.0;;;14.4
58307;BMP280;44116;50.884;4.768;2023-09-19T07:36:01;100710.0;;;14.5
58307;BMP280;44116;50.884;4.768;2023-09-19T07:40:00;100710.0;;;14.9
58307;BMP280;44116;50.884;4.768;2023-09-19T07:42:00;100720.0;;;14.9
58307;BMP280;44116;50.884;4.768;2023-09-19T07:44:00;100720.0;;;14.8
58307;BMP280;44116;50.884;4.768;2023-09-19T07:46:02;100720.0;;;14.8
58307;BMP280;44116;50.884;4.768;2023-09-19T07:48:00;100710.0;;;14.8
58307;BMP280;44116;50.884;4.768;2023-09-19T07:49:59;100710.0;;;14.8
58307;BMP280;44116;50.884;4.768;2023-09-19T07:51:59;100710.0;;;14.9
58307;BMP280;44116;50.884;4.768;2023-09-19T07:53:59;100720.0;;;15.0
58307;BMP280;44116;50.884;4.768;2023-09-19T07:56:03;100730.0;;;15.1
58307;BMP280;44116;50.884;4.768;2023-09-19T07:57:59;100720.0;;;15.3
58307;BMP280;44116;50.884;4.768;2023-09-19T07:59:59;100720.0;;;15.3
58307;BMP280;44116;50.884;4.768;2023-09-19T08:01:59;100720.0;;;15.3
58307;BMP280;44116;50.884;4.768;2023-09-19T08:03:58;100720.0;;;15.3
58307;BMP280;44116;50.884;4.768;2023-09-19T08:05:58;100710.0;;;15.4
58307;BMP280;44116;50.884;4.768;2023-09-19T08:09:58;100710.0;;;15.4
58307;BMP280;44116;50.884;4.768;2023-09-19T08:11:58;100710.0;;;15.3
58307;BMP280;44116;50.884;4.768;2023-09-19T08:13:58;100710.0;;;15.4
58307;BMP280;44116;50.884;4.768;2023-09-19T08:15:58;100720.0;;;15.3
58307;BMP280;44116;50.884;4.768;2023-09-19T08:17:57;100720.0;;;15.6
58307;BMP280;44116;50.884;4.768;2023-09-19T08:19:57;100720.0;;;15.5
58307;BMP280;44116;50.884;4.768;2023-09-19T08:21:57;100720.0;;;15.7
58307;BMP280;44116;50.884;4.768;2023-09-19T08:23:57;100720.0;;;15.5
58307;BMP280;44116;50.884;4.768;2023-09-19T08:25:57;100720.0;;;15.5
58307;BMP280;44116;50.884;4.768;2023-09-19T08:27:57;100720.0;;;15.4
58307;BMP280;44116;50.884;4.768;2023-09-19T08:29:57;100720.0;;;15.7
58307;BMP280;44116;50.884;4.768;2023-09-19T08:31:57;100720.0;;;15.9
58307;BMP280;44116;50.884;4.768;2023-09-19T08:33:56;100720.0;;;15.8
58307;BMP280;44116;50.884;4.768;2023-09-19T08:35:56;100720.0;;;15.6
58307;BMP280;44116;50.884;4.768;2023-09-19T08:37:56;100730.0;;;15.8
58307;BMP280;44116;50.884;4.768;2023-09-19T08:39:56;100720.0;;;16.0
58307;BMP280;44116;50.884;4.768;2023-09-19T08:43:58;100730.0;;;15.8
58307;BMP280;44116;50.884;4.768;2023-09-19T08:49:57;100720.0;;;16.1
58307;BMP280;44116;50.884;4.768;2023-09-19T08:51:59;100720.0;;;16.3
58307;BMP280;44116;50.884;4.768;2023-09-19T08:53:58;100720.0;;;16.0
58307;BMP280;44116;50.884;4.768;2023-09-19T08:55:55;100710.0;;;16.3
58307;BMP280;44116;50.884;4.768;2023-09-19T08:57:58;100720.0;;;16.3
58307;BMP280;44116;50.884;4.768;2023-09-19T09:01:55;100730.0;;;16.4
58307;BMP280;44116;50.884;4.768;2023-09-19T09:03:55;100730.0;;;16.5
58307;BMP280;44116;50.884;4.768;2023-09-19T09:05:54;100730.0;;;16.5
58307;BMP280;44116;50.884;4.768;2023-09-19T09:11:54;100730.0;;;16.7
58307;BMP280;44116;50.884;4.768;2023-09-19T09:13:54;100740.0;;;16.8
58307;BMP280;44116;50.884;4.768;2023-09-19T09:17:54;100730.0;;;16.9
58307;BMP280;44116;50.884;4.768;2023-09-19T09:19:54;100730.0;;;17.1
58307;BMP280;44116;50.884;4.768;2023-09-19T09:21:54;100730.0;;;17.2
58307;BMP280;44116;50.884;4.768;2023-09-19T09:23:53;100730.0;;;17.2
58307;BMP280;44116;50.884;4.768;2023-09-19T09:25:54;100730.0;;;17.2
58307;BMP280;44116;50.884;4.768;2023-09-19T09:27:59;100730.0;;;17.5
58307;BMP280;44116;50.884;4.768;2023-09-19T09:29:53;100730.0;;;17.6
58307;BMP280;44116;50.884;4.768;2023-09-19T09:31:53;100730.0;;;17.3
58307;BMP280;44116;50.884;4.768;2023-09-19T09:33:53;100730.0;;;17.4
58307;BMP280;44116;50.884;4.768;2023-09-19T09:35:53;100720.0;;;17.3
58307;BMP280;44116;50.884;4.768;2023-09-19T09:37:59;100730.0;;;17.5
58307;BMP280;44116;50.884;4.768;2023-09-19T09:41:53;100720.0;;;17.4
58307;BMP280;44116;50.884;4.768;2023-09-19T09:43:53;100720.0;;;17.3
58307;BMP280;44116;50.884;4.768;2023-09-19T09:47:52;100720.0;;;17.5
58307;BMP280;44116;50.884;4.768;2023-09-19T09:49:52;100710.0;;;17.6
58307;BMP280;44116;50.884;4.768;2023-09-19T09:52:00;100720.0;;;17.6
58307;BMP280;44116;50.884;4.768;2023-09-19T09:53:52;100710.0;;;17.4
58307;BMP280;44116;50.884;4.768;2023-09-19T09:56:00;100720.0;;;17.5
58307;BMP280;44116;50.884;4.768;2023-09-19T09:57:58;100710.0;;;17.6
58307;BMP280;44116;50.884;4.768;2023-09-19T10:01:52;100710.0;;;17.7
58307;BMP280;44116;50.884;4.768;2023-09-19T10:05:53;100710.0;;;17.7
58307;BMP280;44116;50.884;4.768;2023-09-19T10:07:52;100720.0;;;17.5
58307;BMP280;44116;50.884;4.768;2023-09-19T10:09:51;100720.0;;;17.6
58307;BMP280;44116;50.884;4.768;2023-09-19T10:12:03;100720.0;;;17.4
58307;BMP280;44116;50.884;4.768;2023-09-19T10:13:51;100720.0;;;17.4
58307;BMP280;44116;50.884;4.768;2023-09-19T10:15:51;100720.0;;;17.5
58307;BMP280;44116;50.884;4.768;2023-09-19T10:17:51;100720.0;;;17.5
58307;BMP280;44116;50.884;4.768;2023-09-19T10:19:52;100710.0;;;17.4
58307;BMP280;44116;50.884;4.768;2023-09-19T10:21:51;100710.0;;;17.8
58307;BMP280;44116;50.884;4.768;2023-09-19T10:23:51;100710.0;;;17.7
58307;BMP280;44116;50.884;4.768;2023-09-19T10:25:51;100710.0;;;17.7
58307;BMP280;44116;50.884;4.768;2023-09-19T10:27:51;100710.0;;;17.6
58307;BMP280;44116;50.884;4.768;2023-09-19T10:29:51;100710.0;;;17.6
58307;BMP280;44116;50.884;4.768;2023-09-19T10:31:50;100710.0;;;17.7
58307;BMP280;44116;50.884;4.768;2023-09-19T10:33:50;100710.0;;;18.0
58307;BMP280;44116;50.884;4.768;2023-09-19T10:41:51;100720.0;;;18.3
58307;BMP280;44116;50.884;4.768;2023-09-19T10:43:50;100720.0;;;18.3
58307;BMP280;44116;50.884;4.768;2023-09-19T10:45:50;100710.0;;;18.4
58307;BMP280;44116;50.884;4.768;2023-09-19T10:47:50;100710.0;;;18.4
58307;BMP280;44116;50.884;4.768;2023-09-19T10:51:51;100710.0;;;18.8
58307;BMP280;44116;50.884;4.768;2023-09-19T10:53:50;100710.0;;;18.7
58307;BMP280;44116;50.884;4.768;2023-09-19T10:55:51;100710.0;;;19.0
58307;BMP280;44116;50.884;4.768;2023-09-19T10:57:50;100710.0;;;18.7
58307;BMP280;44116;50.884;4.768;2023-09-19T11:01:50;100710.0;;;18.8
58307;BMP280;44116;50.884;4.768;2023-09-19T11:03:49;100700.0;;;18.8
58307;BMP280;44116;50.884;4.768;2023-09-19T11:07:59;100710.0;;;18.5
58307;BMP280;44116;50.884;4.768;2023-09-19T11:09:50;100710.0;;;19.0
58307;BMP280;44116;50.884;4.768;2023-09-19T11:11:50;100710.0;;;18.8
58307;BMP280;44116;50.884;4.768;2023-09-19T11:13:56;100720.0;;;19.1
58307;BMP280;44116;50.884;4.768;2023-09-19T11:17:49;100720.0;;;19.3
58307;BMP280;44116;50.884;4.768;2023-09-19T11:21:52;100720.0;;;19.6
58307;BMP280;44116;50.884;4.768;2023-09-19T11:23:58;100720.0;;;19.5
58307;BMP280;44116;50.884;4.768;2023-09-19T11:25:49;100710.0;;;19.5
58307;BMP280;44116;50.884;4.768;2023-09-19T11:29:49;100710.0;;;19.5
58307;BMP280;44116;50.884;4.768;2023-09-19T11:31:49;100710.0;;;20.1
58307;BMP280;44116;50.884;4.768;2023-09-19T11:43:49;100690.0;;;20.6
58307;BMP280;44116;50.884;4.768;2023-09-19T11:47:49;100690.0;;;20.0
58307;BMP280;44116;50.884;4.768;2023-09-19T11:49:49;100680.0;;;20.0
58307;BMP280;44116;50.884;4.768;2023-09-19T11:51:49;100690.0;;;20.0
58307;BMP280;44116;50.884;4.768;2023-09-19T11:55:49;100680.0;;;19.9
58307;BMP280;44116;50.884;4.768;2023-09-19T11:57:49;100690.0;;;20.0
58307;BMP280;44116;50.884;4.768;2023-09-19T11:59:49;100680.0;;;20.0
58307;BMP280;44116;50.884;4.768;2023-09-19T12:03:51;100690.0;;;20.0
58307;BMP280;44116;50.884;4.768;2023-09-19T12:05:49;100680.0;;;20.3
58307;BMP280;44116;50.884;4.768;2023-09-19T12:11:49;100670.0;;;19.9
58307;BMP280;44116;50.884;4.768;2023-09-19T12:13:49;100690.0;;;19.9
58307;BMP280;44116;50.884;4.768;2023-09-19T12:15:49;100690.0;;;20.0
58307;BMP280;44116;50.884;4.768;2023-09-19T12:17:49;100690.0;;;20.0
58307;BMP280;44116;50.884;4.768;2023-09-19T12:19:50;100720.0;;;19.8
58307;BMP280;44116;50.884;4.768;2023-09-19T12:21:56;100710.0;;;19.3
58307;BMP280;44116;50.884;4.768;2023-09-19T12:23:56;100700.0;;;19.1
58307;BMP280;44116;50.884;4.768;2023-09-19T12:25:49;100690.0;;;19.4
58307;BMP280;44116;50.884;4.768;2023-09-19T12:27:49;100690.0;;;19.2
58307;BMP280;44116;50.884;4.768;2023-09-19T12:35:49;100680.0;;;19.1
58307;BMP280;44116;50.884;4.768;2023-09-19T12:37:51;100670.0;;;19.4
58307;BMP280;44116;50.884;4.768;2023-09-19T12:39:49;100680.0;;;18.8
58307;BMP280;44116;50.884;4.768;2023-09-19T12:43:48;100680.0;;;18.8
58307;BMP280;44116;50.884;4.768;2023-09-19T12:45:48;100680.0;;;18.7
58307;BMP280;44116;50.884;4.768;2023-09-19T12:53:56;100680.0;;;18.8
58307;BMP280;44116;50.884;4.768;2023-09-19T12:55:50;100670.0;;;18.9
58307;BMP280;44116;50.884;4.768;2023-09-19T12:57:56;100680.0;;;18.8
58307;BMP280;44116;50.884;4.768;2023-09-19T13:01:48;100670.0;;;19.5
58307;BMP280;44116;50.884;4.768;2023-09-19T13:07:48;100670.0;;;19.9
58307;BMP280;44116;50.884;4.768;2023-09-19T13:11:48;100670.0;;;19.9
58307;BMP280;44116;50.884;4.768;2023-09-19T13:13:49;100670.0;;;19.8
58307;BMP280;44116;50.884;4.768;2023-09-19T13:15:51;100670.0;;;19.8
58307;BMP280;44116;50.884;4.768;2023-09-19T13:17:48;100670.0;;;20.1
58307;BMP280;44116;50.884;4.768;2023-09-19T13:19:48;100680.0;;;19.7
58307;BMP280;44116;50.884;4.768;2023-09-19T13:21:48;100680.0;;;19.8
58307;BMP280;44116;50.884;4.768;2023-09-19T13:23:49;100670.0;;;19.5
58307;BMP280;44116;50.884;4.768;2023-09-19T13:27:48;100690.0;;;19.9
58307;BMP280;44116;50.884;4.768;2023-09-19T13:31:48;100680.0;;;19.5
58307;BMP280;44116;50.884;4.768;2023-09-19T13:33:48;100690.0;;;19.2
58307;BMP280;44116;50.884;4.768;2023-09-19T13:35:47;100690.0;;;19.4
58307;BMP280;44116;50.884;4.768;2023-09-19T13:37:47;100690.0;;;19.2
58307;BMP280;44116;50.884;4.768;2023-09-19T13:39:47;100680.0;;;19.2
58307;BMP280;44116;50.884;4.768;2023-09-19T13:41:47;100690.0;;;19.1
58307;BMP280;44116;50.884;4.768;2023-09-19T13:43:47;100680.0;;;19.0
58307;BMP280;44116;50.884;4.768;2023-09-19T13:45:47;100690.0;;;18.9
58307;BMP280;44116;50.884;4.768;2023-09-19T13:47:47;100700.0;;;19.0
58307;BMP280;44116;50.884;4.768;2023-09-19T13:51:47;100680.0;;;18.8
58307;BMP280;44116;50.884;4.768;2023-09-19T13:53:47;100680.0;;;19.0
58307;BMP280;44116;50.884;4.768;2023-09-19T13:55:47;100680.0;;;19.3
58307;BMP280;44116;50.884;4.768;2023-09-19T13:57:47;100670.0;;;19.1
58307;BMP280;44116;50.884;4.768;2023-09-19T13:59:47;100670.0;;;19.0
58307;BMP280;44116;50.884;4.768;2023-09-19T14:01:47;100680.0;;;19.0
58307;BMP280;44116;50.884;4.768;2023-09-19T14:03:47;100670.0;;;19.1
58307;BMP280;44116;50.884;4.768;2023-09-19T14:07:47;100660.0;;;19.1
58307;BMP280;44116;50.884;4.768;2023-09-19T14:09:47;100670.0;;;19.2
58307;BMP280;44116;50.884;4.768;2023-09-19T14:11:47;100670.0;;;19.2
58307;BMP280;44116;50.884;4.768;2023-09-19T14:13:47;100670.0;;;19.4